Time;durP1;ratioP1;P1;durP2;ratioP2;P2;SDS_P1;SDS_P2;PMS_P1;PMS_P2;Temp;Humidity;BMP_temperature;BMP_pressure;BME280_temperature;BME280_humidity;BME280_pressure;Samples;Min_cycle;Max_cycle;Signal;HPM_P1;HPM_P2
2023/06/24 00:02:15;;;;;;;7.50;6.27;;;21.50;75.10;;;24.21;49.73;102308.28;5051970;28;20277;-58
2023/06/24 00:04:42;;;;;;;7.60;6.77;;;21.50;75.30;;;24.19;49.62;102310.41;5051649;28;20214;-58
2023/06/24 00:07:09;;;;;;;8.73;6.90;;;21.50;75.40;;;24.16;50.07;102310.84;5036092;28;20595;-58
2023/06/24 00:09:37;;;;;;;7.40;6.70;;;21.50;75.60;;;24.14;50.20;102317.50;5037021;28;20265;-59
2023/06/24 00:12:06;;;;;;;7.10;6.27;;;21.40;75.50;;;24.12;50.23;102311.53;5053236;28;20194;-59
2023/06/24 00:14:36;;;;;;;8.10;7.30;;;21.40;75.80;;;24.07;50.11;102314.88;5052214;28;20249;-59
2023/06/24 00:17:04;;;;;;;8.70;7.87;;;21.30;75.90;;;24.04;50.20;102319.84;5038114;28;20189;-58
2023/06/24 00:19:31;;;;;;;7.40;6.70;;;21.30;76.20;;;23.98;50.41;102313.53;5036318;28;20200;-58
2023/06/24 00:21:58;;;;;;;6.83;6.23;;;21.30;76.30;;;23.96;50.34;102315.59;5036094;28;20582;-58
2023/06/24 00:24:25;;;;;;;8.77;6.93;;;21.20;76.50;;;23.95;51.00;102318.50;5035849;28;20222;-59
2023/06/24 00:26:53;;;;;;;8.60;7.80;;;21.20;76.80;;;23.94;51.08;102311.47;5036286;28;20221;-55
2023/06/24 00:29:20;;;;;;;8.90;7.23;;;21.20;77.10;;;23.93;51.24;102315.22;5036418;28;20194;-59
2023/06/24 00:31:49;;;;;;;9.63;8.27;;;21.20;77.10;;;23.92;50.88;102309.03;5046412;28;20277;-58
2023/06/24 00:34:16;;;;;;;7.83;7.03;;;21.20;77.30;;;23.94;50.98;102315.00;5046204;28;20191;-59
2023/06/24 00:36:43;;;;;;;8.23;7.00;;;21.20;77.50;;;23.92;51.19;102311.72;5035246;28;20194;-57
2023/06/24 00:39:10;;;;;;;9.13;8.23;;;21.10;77.40;;;23.91;51.10;102310.09;5036240;28;20305;-57
2023/06/24 00:41:38;;;;;;;8.07;7.03;;;21.10;77.70;;;23.91;51.41;102312.78;5050523;28;20194;-58
2023/06/24 00:44:05;;;;;;;8.30;7.40;;;21.10;77.50;;;23.88;51.39;102315.91;5055672;28;20206;-58
2023/06/24 00:46:33;;;;;;;8.07;7.07;;;21.10;77.80;;;23.88;51.64;102313.22;5055772;28;20304;-59
2023/06/24 00:49:02;;;;;;;7.00;6.37;;;21.10;78.10;;;23.92;51.63;102308.19;5056005;28;20197;-58
2023/06/24 00:51:31;;;;;;;7.67;6.77;;;21.20;78.10;;;23.93;51.74;102310.69;5053725;28;20201;-58
2023/06/24 00:53:58;;;;;;;8.77;7.07;;;21.20;78.10;;;23.96;51.63;102310.19;5055767;28;20192;-57
2023/06/24 00:56:33;;;;;;;8.73;7.57;;;21.20;77.90;;;23.94;51.21;102312.31;5055700;28;20240;-59
2023/06/24 00:59:02;;;;;;;9.07;8.17;;;21.20;77.80;;;23.93;51.66;102305.28;5056076;28;20178;-57
2023/06/24 01:01:33;;;;;;;10.20;7.27;;;21.20;77.90;;;23.90;51.50;102310.28;5056000;28;20210;-58
2023/06/24 01:04:03;;;;;;;8.17;6.70;;;21.20;77.80;;;23.83;51.55;102307.69;5055265;28;20224;-58
2023/06/24 01:06:32;;;;;;;11.37;7.90;;;21.10;77.90;;;23.83;51.72;102315.75;5053048;28;20244;-58
2023/06/24 01:09:02;;;;;;;8.30;7.20;;;21.10;78.30;;;23.81;51.84;102307.09;5034464;28;20193;-59
2023/06/24 01:11:30;;;;;;;10.43;7.77;;;21.10;78.40;;;23.79;51.99;102306.50;5035645;28;20643;-59
2023/06/24 01:13:57;;;;;;;10.93;7.67;;;21.10;78.40;;;23.75;52.27;102313.34;5036547;28;20236;-57
2023/06/24 01:16:35;;;;;;;8.60;6.83;;;21.00;78.50;;;23.71;52.29;102312.16;5055164;28;20300;-59
2023/06/24 01:19:44;;;;;;;8.77;7.40;;;21.00;79.00;;;23.69;52.47;102316.94;5045818;28;20285;-59
2023/06/24 01:22:53;;;;;;;11.10;8.27;;;21.00;79.10;;;23.70;52.21;102321.25;5035761;28;20226;-57
2023/06/24 01:25:47;;;;;;;11.23;9.27;;;21.00;78.90;;;23.66;52.15;102322.75;5053703;28;20279;-59
2023/06/24 01:28:45;;;;;;;9.43;8.37;;;21.00;78.90;;;23.63;52.42;102322.38;5054911;28;20224;-57
2023/06/24 01:31:34;;;;;;;10.57;8.37;;;21.00;79.10;;;23.58;52.53;102321.16;5054714;28;20244;-59
2023/06/24 01:34:14;;;;;;;8.97;7.30;;;21.00;79.30;;;23.59;52.76;102319.28;5054300;28;20174;-59
2023/06/24 01:36:51;;;;;;;9.07;8.17;;;20.90;79.40;;;23.60;52.51;102320.13;5054999;28;20228;-59
2023/06/24 01:39:23;;;;;;;9.73;8.83;;;20.90;79.30;;;23.56;52.50;102315.19;5055239;28;20678;-59
2023/06/24 01:42:00;;;;;;;10.57;8.07;;;20.80;79.40;;;23.52;52.76;102316.69;5053128;28;20186;-58
2023/06/24 01:44:29;;;;;;;9.47;8.37;;;20.80;79.70;;;23.52;53.00;102322.06;5054483;28;20256;-57
2023/06/24 01:47:00;;;;;;;10.77;8.77;;;20.80;80.00;;;23.53;52.88;102322.88;5054673;28;20649;-58
2023/06/24 01:49:33;;;;;;;10.40;9.07;;;20.80;80.00;;;23.50;52.79;102326.00;5055072;28;20612;-59
2023/06/24 01:52:04;;;;;;;9.63;8.57;;;20.80;80.00;;;23.48;53.14;102330.78;5055234;28;20189;-59
2023/06/24 01:54:34;;;;;;;9.73;8.73;;;20.70;80.20;;;23.47;53.24;102321.91;5054263;28;20178;-56
2023/06/24 01:57:05;;;;;;;9.33;8.40;;;20.70;80.50;;;23.50;53.14;102323.31;5054788;28;20190;-57
2023/06/24 01:59:35;;;;;;;9.80;8.77;;;20.80;80.80;;;23.54;53.11;102317.28;5053635;28;20198;-58
2023/06/24 02:02:06;;;;;;;10.03;8.93;;;20.80;80.50;;;23.52;52.87;102318.53;5054788;28;20194;-55
2023/06/24 02:04:35;;;;;;;9.70;8.70;;;20.80;80.40;;;23.50;53.09;102315.25;5054108;28;20247;-59
2023/06/24 02:07:05;;;;;;;8.67;7.77;;;20.70;80.20;;;23.46;53.25;102316.75;5054340;28;20190;-56
2023/06/24 02:09:34;;;;;;;9.33;8.33;;;20.70;80.60;;;23.47;53.31;102311.13;5054600;28;20190;-56
2023/06/24 02:12:04;;;;;;;8.53;7.73;;;20.70;80.60;;;23.47;53.30;102316.50;5054325;28;20276;-56
2023/06/24 02:14:32;;;;;;;9.20;8.40;;;20.70;80.50;;;23.47;53.07;102321.06;5053124;28;20190;-56
2023/06/24 02:17:05;;;;;;;9.40;8.37;;;20.70;80.70;;;23.47;53.45;102318.38;5054217;28;20594;-58
2023/06/24 02:19:33;;;;;;;8.97;8.07;;;20.80;81.00;;;23.49;53.22;102314.44;5054196;28;20194;-59
2023/06/24 02:22:02;;;;;;;10.50;9.37;;;20.80;81.00;;;23.52;53.54;102314.00;5054033;28;20257;-57
2023/06/24 02:24:30;;;;;;;11.00;9.37;;;20.80;81.00;;;23.55;53.35;102310.03;5053592;28;20218;-58
2023/06/24 02:26:58;;;;;;;9.77;8.37;;;20.80;80.90;;;23.58;53.29;102312.28;5054292;28;20214;-58
2023/06/24 02:29:28;;;;;;;11.83;9.27;;;20.90;80.90;;;23.59;53.34;102313.91;5048229;28;20682;-58
2023/06/24 02:31:55;;;;;;;10.00;9.00;;;20.80;80.50;;;23.63;53.15;102312.44;5033892;28;20573;-56
2023/06/24 02:34:24;;;;;;;9.47;8.47;;;20.90;80.40;;;23.66;53.46;102313.84;5033198;28;20750;-54
2023/06/24 02:36:51;;;;;;;9.83;8.83;;;20.90;80.40;;;23.66;53.07;102322.75;5048598;28;20200;-58
2023/06/24 02:39:18;;;;;;;10.03;9.00;;;20.90;80.10;;;23.66;52.82;102324.59;5054286;28;20194;-59
2023/06/24 02:41:47;;;;;;;10.93;8.50;;;20.90;80.00;;;23.62;52.68;102318.03;5054001;28;20220;-58
2023/06/24 02:44:14;;;;;;;9.77;8.77;;;20.90;80.10;;;23.56;52.69;102319.72;5041357;28;20225;-57
2023/06/24 02:46:44;;;;;;;10.53;9.50;;;20.80;80.10;;;23.51;52.75;102319.56;5033891;28;20655;-58
2023/06/24 02:49:17;;;;;;;10.17;8.83;;;20.80;80.10;;;23.45;53.16;102323.16;5033110;28;20261;-58
2023/06/24 02:51:46;;;;;;;11.43;10.17;;;20.70;80.60;;;23.43;53.46;102319.88;5033781;28;20198;-59
2023/06/24 02:54:14;;;;;;;12.23;9.67;;;20.70;80.80;;;23.45;53.43;102325.84;5033733;28;20280;-57
2023/06/24 02:56:43;;;;;;;9.23;8.43;;;20.70;80.90;;;23.43;53.54;102330.63;5034083;28;20194;-56
2023/06/24 02:59:11;;;;;;;11.43;10.33;;;20.70;81.00;;;23.42;53.57;102328.97;5033416;28;20225;-57
2023/06/24 03:01:39;;;;;;;11.00;9.90;;;20.70;81.10;;;23.41;53.33;102332.72;5033625;28;20218;-60
2023/06/24 03:04:07;;;;;;;9.50;8.70;;;20.70;81.00;;;23.38;53.34;102333.13;5046347;28;20224;-57
2023/06/24 03:06:36;;;;;;;10.30;9.40;;;20.70;80.80;;;23.35;53.38;102334.41;5053196;28;20305;-60
2023/06/24 03:09:05;;;;;;;11.87;10.63;;;20.60;80.60;;;23.33;53.61;102335.63;5053639;28;20201;-59
2023/06/24 03:11:40;;;;;;;8.67;7.80;;;20.60;81.20;;;23.28;53.78;102338.16;5047926;28;20281;-61
2023/06/24 03:14:07;;;;;;;9.57;8.57;;;20.60;81.30;;;23.32;53.79;102342.06;5035990;28;20277;-57
2023/06/24 03:16:34;;;;;;;10.23;9.23;;;20.60;81.30;;;23.32;54.10;102344.75;5033576;28;20276;-54
2023/06/24 03:19:01;;;;;;;10.10;9.10;;;20.60;81.50;;;23.34;53.76;102339.97;5033233;28;20274;-57
2023/06/24 03:21:28;;;;;;;10.20;8.70;;;20.60;81.50;;;23.37;54.00;102343.06;5051584;28;20197;-55
2023/06/24 03:23:56;;;;;;;11.07;9.97;;;20.60;81.70;;;23.41;53.78;102346.97;5053172;28;20641;-57
2023/06/24 03:26:25;;;;;;;11.33;9.73;;;20.70;81.40;;;23.41;53.24;102348.84;5041524;28;20296;-57
2023/06/24 03:28:52;;;;;;;10.30;9.30;;;20.60;80.90;;;23.35;53.62;102350.53;5034092;28;20647;-57
2023/06/24 03:31:23;;;;;;;11.40;10.20;;;20.60;80.80;;;23.32;53.49;102342.88;5033842;28;20200;-58
2023/06/24 03:33:49;;;;;;;10.13;9.17;;;20.60;80.90;;;23.28;53.31;102341.66;5033340;28;20589;-57
2023/06/24 03:36:16;;;;;;;11.43;10.37;;;20.60;81.60;;;23.27;53.52;102352.66;5033214;28;20757;-58
2023/06/24 03:38:43;;;;;;;11.73;10.50;;;20.50;81.00;;;23.24;53.51;102353.06;5033377;28;20656;-58
2023/06/24 03:41:10;;;;;;;11.57;9.37;;;20.50;81.00;;;23.20;53.50;102354.56;5033451;28;20277;-57
2023/06/24 03:43:39;;;;;;;9.83;8.87;;;20.50;81.10;;;23.20;53.81;102368.78;5033007;28;20242;-57
2023/06/24 03:46:06;;;;;;;13.17;10.37;;;20.40;81.60;;;23.20;53.79;102358.06;5033354;28;20215;-57
2023/06/24 03:48:33;;;;;;;9.93;8.93;;;20.40;81.70;;;23.21;54.05;102356.19;5033539;28;20190;-59
2023/06/24 03:51:00;;;;;;;9.37;8.47;;;20.40;81.90;;;23.24;54.15;102363.81;5033737;28;20194;-57
2023/06/24 03:53:27;;;;;;;10.60;9.50;;;20.50;82.20;;;23.29;54.01;102358.63;5035862;28;20208;-59
2023/06/24 03:55:54;;;;;;;11.13;9.93;;;20.50;82.10;;;23.31;53.79;102364.59;5052646;28;20648;-59
2023/06/24 03:58:21;;;;;;;13.20;9.53;;;20.50;81.60;;;23.32;53.54;102368.94;5052999;28;20734;-58
2023/06/24 04:00:49;;;;;;;10.17;9.13;;;20.50;81.40;;;23.31;53.60;102372.66;5053180;28;20266;-63
2023/06/24 04:03:19;;;;;;;9.80;8.03;;;20.50;81.40;;;23.29;53.37;102367.50;5052685;28;20601;-59
2023/06/24 04:05:46;;;;;;;12.63;10.57;;;20.50;81.50;;;23.30;53.61;102366.44;5052744;28;20206;-58
2023/06/24 04:08:14;;;;;;;11.93;10.73;;;20.50;81.30;;;23.28;53.35;102365.03;5052243;28;20240;-58
2023/06/24 04:10:43;;;;;;;11.97;10.77;;;20.50;81.10;;;23.17;53.65;102371.94;5054113;28;20200;-56
2023/06/24 04:13:10;;;;;;;11.37;10.17;;;20.50;81.20;;;23.14;53.88;102364.31;5056555;28;20229;-59
2023/06/24 04:15:37;;;;;;;11.50;10.50;;;20.50;81.50;;;23.14;53.67;102369.69;5056162;28;20293;-58
2023/06/24 04:18:05;;;;;;;10.53;9.57;;;20.50;81.50;;;23.15;53.70;102370.50;5056513;28;20190;-59
2023/06/24 04:20:32;;;;;;;10.50;8.90;;;20.40;81.30;;;23.12;53.58;102379.00;5056552;28;20225;-59
2023/06/24 04:23:05;;;;;;;10.57;9.30;;;20.40;81.20;;;23.07;53.50;102384.19;5041732;28;20616;-57
2023/06/24 04:25:32;;;;;;;11.00;9.63;;;20.30;81.20;;;23.04;53.67;102379.25;5036286;28;20732;-57
2023/06/24 04:28:00;;;;;;;10.50;9.50;;;20.30;81.60;;;23.01;53.95;102375.13;5036665;28;20252;-57
2023/06/24 04:30:27;;;;;;;10.13;9.17;;;20.30;81.80;;;23.03;54.25;102369.56;5036513;28;20194;-59
2023/06/24 04:32:54;;;;;;;12.03;10.83;;;20.20;82.20;;;23.04;54.55;102368.50;5036486;28;20246;-56
2023/06/24 04:35:22;;;;;;;10.73;9.73;;;20.30;82.70;;;23.09;54.20;102366.00;5036592;28;20213;-58
2023/06/24 04:37:50;;;;;;;11.73;10.37;;;20.30;82.50;;;23.09;54.27;102366.00;5036429;28;20269;-58
2023/06/24 04:40:18;;;;;;;10.37;9.33;;;20.30;82.30;;;23.07;53.65;102378.81;5036437;28;20739;-58
2023/06/24 04:42:46;;;;;;;10.37;9.30;;;20.30;82.20;;;23.05;53.96;102380.91;5054988;28;20632;-59
2023/06/24 04:45:13;;;;;;;10.93;9.23;;;20.30;82.20;;;23.00;53.97;102372.66;5055984;28;20694;-59
2023/06/24 04:47:40;;;;;;;11.70;10.50;;;20.30;82.10;;;22.96;54.07;102377.66;5051984;28;20277;-58
2023/06/24 04:50:11;;;;;;;11.70;10.57;;;20.20;82.10;;;22.90;54.08;102379.34;5056136;28;20208;-58
2023/06/24 04:52:40;;;;;;;11.43;10.23;;;20.20;82.20;;;22.87;54.20;102373.56;5054740;28;20209;-59
2023/06/24 04:55:08;;;;;;;12.10;10.17;;;20.10;82.30;;;22.83;54.09;102383.94;5055712;28;20284;-59
2023/06/24 04:57:35;;;;;;;10.07;9.17;;;20.10;82.50;;;22.82;54.30;102386.84;5055712;28;20185;-56
2023/06/24 05:00:04;;;;;;;10.53;9.43;;;20.10;82.60;;;22.81;54.50;102380.63;5055873;28;20198;-57
2023/06/24 05:02:31;;;;;;;11.47;9.90;;;20.00;82.80;;;22.80;54.22;102376.28;5055621;28;20202;-56
2023/06/24 05:04:58;;;;;;;11.67;9.83;;;20.00;82.80;;;22.83;54.54;102383.94;5055368;28;20232;-59
2023/06/24 05:07:25;;;;;;;9.73;8.70;;;20.00;83.20;;;22.86;54.93;102372.75;5055536;28;20647;-58
2023/06/24 05:09:54;;;;;;;13.10;11.80;;;20.00;83.40;;;22.88;55.18;102370.69;5055766;28;20277;-58
2023/06/24 05:12:21;;;;;;;11.70;10.60;;;20.10;83.80;;;22.85;55.14;102364.91;5055648;28;20745;-58
2023/06/24 05:14:50;;;;;;;14.43;11.53;;;20.10;83.70;;;22.77;55.44;102363.28;5054823;28;20300;-59
2023/06/24 05:17:18;;;;;;;12.50;11.30;;;20.10;83.70;;;22.71;55.65;102364.16;5035609;28;20209;-59
2023/06/24 05:19:45;;;;;;;12.17;9.90;;;20.10;83.60;;;22.74;55.69;102368.28;5035299;28;20193;-57
2023/06/24 05:22:12;;;;;;;13.43;11.90;;;20.10;84.00;;;22.79;55.51;102379.19;5034846;28;20186;-58
2023/06/24 05:24:41;;;;;;;12.47;10.73;;;20.10;84.30;;;22.79;55.65;102377.34;5035369;28;20691;-57
2023/06/24 05:27:09;;;;;;;12.57;10.90;;;20.10;84.00;;;22.80;55.83;102375.47;5035485;28;20647;-57
2023/06/24 05:29:36;;;;;;;12.13;10.47;;;20.20;84.00;;;22.82;55.78;102373.41;5035372;28;20285;-57
2023/06/24 05:32:05;;;;;;;11.77;9.43;;;20.20;84.10;;;22.81;55.87;102374.44;5035331;28;20218;-56
2023/06/24 05:34:32;;;;;;;12.13;10.90;;;20.20;84.20;;;22.85;55.71;102359.53;5034871;28;20225;-58
2023/06/24 05:36:59;;;;;;;11.63;10.40;;;20.20;84.10;;;22.89;55.58;102356.19;5035610;28;20197;-59
2023/06/24 05:39:26;;;;;;;10.93;9.93;;;20.20;84.20;;;22.91;55.79;102342.56;5035617;28;20274;-59
2023/06/24 05:41:53;;;;;;;12.20;11.10;;;20.20;84.20;;;22.94;55.82;102350.16;5035284;28;20214;-59
2023/06/24 05:44:22;;;;;;;10.97;9.67;;;20.20;84.40;;;23.00;55.45;102351.19;5043059;28;20634;-59
2023/06/24 05:46:50;;;;;;;9.93;8.57;;;20.30;84.30;;;23.08;55.52;102354.44;5034903;28;20211;-58
2023/06/24 05:49:16;;;;;;;9.37;8.57;;;20.30;84.40;;;23.21;55.31;102353.50;5035041;28;20281;-57
2023/06/24 05:51:44;;;;;;;11.70;10.50;;;20.40;84.80;;;23.32;55.02;102352.81;5034861;28;20186;-59
2023/06/24 05:54:11;;;;;;;11.43;10.23;;;20.50;84.40;;;23.41;55.25;102348.84;5034553;28;20286;-57
2023/06/24 05:56:38;;;;;;;13.90;11.50;;;20.60;84.20;;;23.42;55.13;102345.91;5034540;28;20210;-57
2023/06/24 05:59:06;;;;;;;14.33;11.87;;;20.60;83.90;;;23.40;54.59;102348.00;5043314;28;20606;-57
2023/06/24 06:01:34;;;;;;;13.30;11.93;;;20.70;83.30;;;23.30;55.18;102350.31;5034269;28;20237;-57
2023/06/24 06:04:02;;;;;;;12.87;10.97;;;20.70;83.40;;;23.27;55.41;102358.03;5033991;28;20202;-57
2023/06/24 06:06:29;;;;;;;12.47;10.63;;;20.70;83.50;;;23.28;55.33;102354.28;5034353;28;20211;-57
2023/06/24 06:08:56;;;;;;;11.27;9.97;;;20.70;83.40;;;23.30;55.29;102360.25;5034149;28;20281;-58
2023/06/24 06:11:23;;;;;;;10.70;9.43;;;20.70;83.40;;;23.30;55.38;102358.38;5044335;28;20206;-57
2023/06/24 06:13:51;;;;;;;10.30;9.20;;;20.70;84.30;;;23.36;55.20;102365.63;5053579;28;20507;-58
2023/06/24 06:16:18;;;;;;;11.07;8.53;;;20.70;83.70;;;23.42;55.13;102366.59;5051746;28;20295;-58
2023/06/24 06:18:47;;;;;;;11.03;9.40;;;20.70;83.80;;;23.48;54.98;102373.81;5053748;28;20597;-58
2023/06/24 06:21:14;;;;;;;9.97;8.90;;;20.80;83.90;;;23.44;55.01;102373.41;5054086;28;20698;-59
2023/06/24 06:23:41;;;;;;;12.53;9.10;;;20.80;83.10;;;23.49;54.72;102378.13;5038019;28;20198;-58
2023/06/24 06:26:08;;;;;;;8.33;7.27;;;20.80;83.50;;;23.56;54.45;102381.56;5032843;28;20233;-57
2023/06/24 06:28:35;;;;;;;7.70;7.00;;;20.80;83.00;;;23.65;54.25;102387.53;5033754;28;20274;-58
2023/06/24 06:31:02;;;;;;;6.87;6.23;;;20.90;82.90;;;23.77;54.22;102386.56;5033574;28;20273;-59
2023/06/24 06:33:29;;;;;;;6.97;6.20;;;20.90;82.80;;;23.91;54.06;102380.03;5032804;28;20221;-55
2023/06/24 06:35:58;;;;;;;8.07;6.50;;;21.00;82.50;;;24.04;53.44;102387.94;5033142;28;20217;-58
2023/06/24 06:38:26;;;;;;;8.40;6.90;;;21.10;82.20;;;24.16;52.64;102391.59;5033607;28;20231;-58
2023/06/24 06:40:53;;;;;;;8.13;6.87;;;21.10;81.70;;;24.24;51.81;102390.47;5047412;28;20276;-54
2023/06/24 06:43:21;;;;;;;8.17;7.37;;;21.20;80.20;;;24.26;51.51;102388.38;5053211;28;20304;-57
2023/06/24 06:45:48;;;;;;;8.87;7.97;;;21.30;79.70;;;24.33;51.92;102390.97;5052992;28;20271;-57
2023/06/24 06:48:15;;;;;;;12.00;7.90;;;21.40;79.90;;;24.42;51.70;102395.00;5052024;28;20208;-59
2023/06/24 06:50:42;;;;;;;7.90;7.20;;;21.50;79.70;;;24.56;51.31;102385.72;5053371;28;20198;-58
2023/06/24 06:53:10;;;;;;;8.57;7.47;;;21.50;79.60;;;24.67;50.44;102387.66;5052907;28;20280;-61
2023/06/24 06:55:39;;;;;;;8.37;7.27;;;21.60;78.80;;;24.71;50.24;102391.53;5033280;28;20214;-54
2023/06/24 06:58:06;;;;;;;8.87;6.53;;;21.70;77.70;;;24.74;50.42;102391.91;5033239;28;20187;-59
2023/06/24 07:00:33;;;;;;;7.23;6.00;;;21.80;77.80;;;24.81;50.30;102389.16;5034043;28;20270;-58
2023/06/24 07:03:00;;;;;;;9.23;6.33;;;21.90;77.50;;;24.87;49.96;102393.63;5051592;28;20252;-58
2023/06/24 07:05:27;;;;;;;6.43;5.83;;;21.90;76.90;;;24.95;49.71;102389.78;5052855;28;20224;-58
2023/06/24 07:07:53;;;;;;;6.00;4.80;;;22.00;76.20;;;25.03;48.76;102387.59;5048206;28;20233;-57
2023/06/24 07:10:22;;;;;;;5.97;5.40;;;22.10;75.80;;;25.15;48.47;102383.03;5035467;28;20229;-59
2023/06/24 07:12:49;;;;;;;5.93;5.43;;;22.10;75.60;;;25.24;47.90;102392.47;5052714;28;20204;-59
2023/06/24 07:15:19;;;;;;;6.60;5.30;;;22.20;75.00;;;25.34;47.75;102387.31;5053039;28;20685;-56
2023/06/24 07:17:46;;;;;;;7.37;6.67;;;22.30;74.70;;;25.36;47.28;102390.63;5053204;28;20208;-58
2023/06/24 07:20:13;;;;;;;7.57;6.17;;;22.40;74.00;;;25.41;47.92;102390.72;5035325;28;20225;-58
2023/06/24 07:22:40;;;;;;;6.67;6.07;;;22.50;74.20;;;25.40;46.79;102391.78;5033181;28;20638;-58
2023/06/24 07:25:07;;;;;;;6.77;6.10;;;22.50;72.50;;;25.34;46.76;102389.22;5032882;28;20305;-57
2023/06/24 07:27:35;;;;;;;6.53;5.93;;;22.60;72.50;;;25.31;47.00;102387.81;5033571;28;20702;-60
2023/06/24 07:30:04;;;;;;;7.87;5.80;;;22.60;71.80;;;25.29;47.01;102389.88;5032984;28;20202;-57
2023/06/24 07:32:31;;;;;;;7.33;6.50;;;22.60;71.50;;;25.31;46.97;102385.09;5033047;28;20289;-58
2023/06/24 07:34:58;;;;;;;6.17;5.67;;;22.70;72.10;;;25.37;46.83;102381.47;5032645;28;20202;-58
2023/06/24 07:37:25;;;;;;;6.60;5.73;;;22.70;72.50;;;25.36;47.35;102387.94;5048106;28;20191;-59
2023/06/24 07:39:52;;;;;;;7.60;6.80;;;22.70;73.00;;;25.29;47.34;102394.47;5032785;28;20187;-58
2023/06/24 07:42:19;;;;;;;7.53;6.30;;;22.70;72.40;;;25.36;47.41;102398.72;5032444;28;20272;-59
2023/06/24 07:44:48;;;;;;;8.27;6.57;;;22.80;72.80;;;25.51;47.76;102396.41;5032212;28;20218;-59
2023/06/24 07:47:18;;;;;;;8.10;6.00;;;22.80;72.80;;;25.64;46.79;102392.69;5035829;28;20195;-59
2023/06/24 07:49:45;;;;;;;6.43;5.73;;;22.90;72.10;;;25.78;46.72;102391.38;5036861;28;20613;-60
2023/06/24 07:52:12;;;;;;;5.87;5.27;;;23.00;72.30;;;25.98;46.95;102396.44;5036775;28;20262;-58
2023/06/24 07:54:40;;;;;;;6.53;5.40;;;23.10;72.40;;;26.16;46.02;102393.63;5036616;28;20222;-60
2023/06/24 07:57:07;;;;;;;6.40;5.80;;;23.20;72.30;;;26.31;45.57;102396.66;5036233;28;20210;-61
2023/06/24 07:59:34;;;;;;;7.83;6.57;;;23.30;71.80;;;26.39;44.97;102393.56;5036390;28;20294;-58
2023/06/24 08:02:03;;;;;;;6.90;6.20;;;23.50;70.70;;;26.43;44.69;102389.34;5049071;28;20228;-56
2023/06/24 08:04:30;;;;;;;5.97;5.40;;;23.60;70.20;;;26.51;45.25;102388.94;5054201;28;20208;-58
2023/06/24 08:06:57;;;;;;;5.80;5.07;;;23.70;70.50;;;26.65;44.51;102390.31;5055552;28;20627;-58
2023/06/24 08:09:24;;;;;;;7.00;6.20;;;23.70;69.80;;;26.76;44.13;102388.66;5056479;28;20692;-59
2023/06/24 08:11:51;;;;;;;6.70;6.10;;;23.80;69.30;;;26.81;44.45;102392.25;5057000;28;20666;-60
2023/06/24 08:14:18;;;;;;;6.87;5.87;;;23.90;69.40;;;26.94;44.48;102393.03;5054276;28;20280;-59
2023/06/24 08:16:44;;;;;;;5.63;5.03;;;24.00;69.60;;;27.14;44.19;102396.13;5036304;28;20630;-57
2023/06/24 08:19:14;;;;;;;5.83;5.27;;;24.10;69.60;;;27.51;43.57;102387.31;5048875;28;20209;-59
2023/06/24 08:21:41;;;;;;;8.07;5.40;;;24.30;68.90;;;28.19;42.94;102384.25;5056313;28;20197;-62
2023/06/24 08:24:08;;;;;;;7.03;6.33;;;24.50;69.30;;;29.05;41.48;102376.31;5055672;28;20277;-58
2023/06/24 08:26:35;;;;;;;7.60;6.10;;;24.80;69.00;;;29.85;39.42;102371.53;5056155;28;20217;-61
2023/06/24 08:29:03;;;;;;;6.70;4.70;;;25.20;66.40;;;30.51;37.21;102369.13;5055766;28;20194;-57
2023/06/24 08:31:31;;;;;;;5.90;5.40;;;25.70;64.30;;;30.96;35.31;102365.69;5055898;28;20194;-57
2023/06/24 08:34:02;;;;;;;4.93;4.43;;;26.20;59.50;;;31.21;34.40;102373.91;5053713;28;20280;-59
2023/06/24 08:36:30;;;;;;;4.97;4.50;;;26.60;59.00;;;31.42;33.72;102372.78;5048207;28;20570;-58
2023/06/24 08:38:57;;;;;;;5.37;4.87;;;27.00;57.20;;;31.68;33.72;102379.88;5054962;28;20221;-59
2023/06/24 08:41:25;;;;;;;4.70;4.30;;;27.30;57.50;;;31.91;34.77;102379.25;5055319;28;20220;-59
2023/06/24 08:43:53;;;;;;;5.77;5.27;;;27.50;57.50;;;31.80;33.20;102372.22;5055465;28;20233;-59
2023/06/24 08:46:21;;;;;;;5.07;4.57;;;27.70;54.70;;;31.53;32.79;102366.28;5055123;28;20213;-59
2023/06/24 08:48:52;;;;;;;5.20;4.70;;;27.70;53.30;;;31.35;33.05;102369.53;5055260;28;20276;-59
2023/06/24 08:51:27;;;;;;;4.60;4.20;;;27.70;53.60;;;31.83;33.20;102366.19;5046314;28;20233;-59
2023/06/24 08:53:57;;;;;;;5.20;4.70;;;27.80;53.90;;;32.32;31.90;102360.88;5035488;28;20693;-59
2023/06/24 08:56:25;;;;;;;5.07;4.57;;;27.90;53.00;;;32.71;30.84;102363.69;5035183;28;20214;-58
2023/06/24 08:58:52;;;;;;;4.03;3.73;;;28.10;51.50;;;33.33;30.74;102357.47;5034882;28;20574;-59
2023/06/24 09:01:19;;;;;;;4.10;3.80;;;28.50;51.90;;;34.25;29.78;102358.94;5041753;28;20208;-60
2023/06/24 09:03:50;;;;;;;4.63;4.33;;;28.80;52.00;;;34.72;28.86;102360.75;5054771;28;20196;-59
2023/06/24 09:06:17;;;;;;;4.43;4.03;;;29.30;49.60;;;34.80;28.01;102362.03;5054766;28;20232;-59
2023/06/24 09:08:54;;;;;;;4.13;3.73;;;29.60;47.10;;;34.91;27.94;102368.94;5038256;28;20205;-58
2023/06/24 09:11:26;;;;;;;5.63;4.03;;;29.90;47.00;;;35.27;26.91;102370.03;5045857;28;20259;-58
2023/06/24 09:13:57;;;;;;;4.47;4.07;;;30.10;45.30;;;35.52;26.51;102369.59;5054749;28;20738;-58
2023/06/24 09:16:26;;;;;;;4.72;4.22;;;30.30;44.60;;;35.63;26.49;102362.00;5052374;28;20288;-58
2023/06/24 09:18:53;;;;;;;5.70;4.00;;;30.60;44.10;;;35.54;26.69;102364.59;5054479;28;20273;-58
2023/06/24 09:21:25;;;;;;;6.38;4.28;;;30.80;44.10;;;36.24;27.15;102367.06;5054668;28;20198;-60
2023/06/24 09:23:58;;;;;;;4.13;3.83;;;31.00;45.20;;;37.12;25.63;102361.72;5053249;28;20196;-59
2023/06/24 09:26:27;;;;;;;3.70;3.40;;;31.30;43.50;;;38.16;24.48;102358.31;5054392;28;20305;-58
2023/06/24 09:28:54;;;;;;;3.85;3.53;;;31.70;43.70;;;39.04;23.91;102350.56;5054794;28;20190;-59
2023/06/24 09:31:23;;;;;;;4.38;3.97;;;32.20;42.90;;;39.84;22.34;102349.69;5054933;28;20539;-59
2023/06/24 09:33:51;;;;;;;3.50;3.20;;;32.80;40.80;;;40.67;22.19;102349.78;5054472;28;20596;-58
2023/06/24 09:36:18;;;;;;;3.70;3.40;;;33.30;40.30;;;41.57;20.47;102347.81;5054889;28;20292;-60
2023/06/24 09:38:45;;;;;;;4.22;3.88;;;33.80;38.80;;;42.03;19.17;102341.84;5054632;28;20194;-58
2023/06/24 09:41:14;;;;;;;3.83;3.53;;;34.40;35.60;;;42.40;19.74;102337.84;5044255;28;20205;-58
2023/06/24 09:43:47;;;;;;;3.95;3.55;;;34.80;36.50;;;42.95;18.87;102339.00;5034059;28;20682;-58
2023/06/24 09:46:15;;;;;;;4.07;3.88;;;35.20;35.10;;;43.30;17.46;102331.63;5034944;28;20249;-61
2023/06/24 09:48:43;;;;;;;4.80;3.72;;;35.60;31.80;;;42.97;17.68;102325.59;5034168;28;20190;-58
2023/06/24 09:51:13;;;;;;;4.20;3.83;;;35.90;31.10;;;42.90;18.34;102328.19;5034125;28;20217;-59
2023/06/24 09:53:42;;;;;;;4.28;3.88;;;36.10;31.60;;;42.91;18.46;102335.34;5039454;28;20193;-59
2023/06/24 09:56:13;;;;;;;3.85;3.58;;;36.20;31.60;;;43.05;18.04;102328.19;5053634;28;20218;-59
2023/06/24 09:58:44;;;;;;;4.68;4.30;;;36.40;31.10;;;43.43;17.59;102322.06;5053658;28;20198;-59
2023/06/24 10:01:12;;;;;;;4.35;4.03;;;36.50;30.00;;;43.51;17.29;102318.28;5052590;28;20265;-58
2023/06/24 10:03:40;;;;;;;4.30;3.90;;;36.70;30.30;;;43.64;17.37;102322.56;5053954;28;20196;-59
2023/06/24 10:06:08;;;;;;;4.32;4.03;;;36.80;30.50;;;43.95;17.36;102316.16;5053779;28;20221;-60
2023/06/24 10:08:37;;;;;;;4.35;4.00;;;36.90;30.00;;;44.22;17.20;102306.03;5053462;28;20220;-59
2023/06/24 10:11:04;;;;;;;5.03;4.55;;;37.10;29.60;;;44.24;17.34;102310.03;5053464;28;20217;-59
2023/06/24 10:13:31;;;;;;;4.13;3.83;;;37.20;29.90;;;44.31;17.36;102303.84;5048533;28;20667;-58
2023/06/24 10:15:59;;;;;;;4.60;4.20;;;37.20;29.40;;;44.20;17.35;102305.56;5050876;28;20217;-58
2023/06/24 10:18:35;;;;;;;5.38;4.38;;;37.30;29.40;;;44.12;17.06;102309.41;5053155;28;20710;-60